createdAt,value
2023-02-05T00:00:29.809Z,11.37
2023-02-05T00:03:00.120Z,13.20
2023-02-05T00:05:28.156Z,14.40
2023-02-05T00:07:56.116Z,12.43
2023-02-05T00:10:25.057Z,13.60
2023-02-05T00:12:53.016Z,13.50
2023-02-05T00:15:21.676Z,12.90
2023-02-05T00:17:49.713Z,13.63
2023-02-05T00:20:19.451Z,12.37
2023-02-05T00:22:47.964Z,11.17
2023-02-05T00:25:16.884Z,12.67
2023-02-05T00:27:46.806Z,13.20
2023-02-05T00:30:16.914Z,12.17
2023-02-05T00:32:44.936Z,12.00
2023-02-05T00:35:12.953Z,11.70
2023-02-05T00:37:43.688Z,11.40
2023-02-05T00:40:14.327Z,11.30
2023-02-05T00:42:43.517Z,11.00
2023-02-05T00:45:11.549Z,10.50
2023-02-05T00:47:39.991Z,12.13
2023-02-05T00:50:08.854Z,12.30
2023-02-05T00:52:36.837Z,11.20
2023-02-05T00:55:08.915Z,10.73
2023-02-05T00:57:36.913Z,13.53
2023-02-05T01:00:07.408Z,10.57
2023-02-05T01:02:35.952Z,12.13
2023-02-05T01:05:04.467Z,13.10
2023-02-05T01:07:32.604Z,10.53
2023-02-05T01:10:01.320Z,13.83
2023-02-05T01:12:33.544Z,10.43
2023-02-05T01:15:01.612Z,11.73
2023-02-05T01:17:30.350Z,12.70
2023-02-05T01:20:23.335Z,12.20
2023-02-05T01:22:52.931Z,10.83
2023-02-05T01:25:21.082Z,13.33
2023-02-05T01:27:51.011Z,12.30
2023-02-05T01:30:19.211Z,11.33
2023-02-05T01:32:47.246Z,11.83
2023-02-05T01:35:15.890Z,11.90
2023-02-05T01:37:43.869Z,12.50
2023-02-05T01:40:16.928Z,13.10
2023-02-05T01:42:47.227Z,13.23
2023-02-05T01:45:52.600Z,13.60
2023-02-05T01:48:28.099Z,13.90
2023-02-05T01:51:01.070Z,12.80
2023-02-05T01:53:32.760Z,13.20
2023-02-05T01:56:04.344Z,13.33
2023-02-05T01:58:37.249Z,13.27
2023-02-05T02:01:07.778Z,13.20
2023-02-05T02:03:36.685Z,11.80
2023-02-05T02:06:05.535Z,13.53
2023-02-05T02:08:34.080Z,13.20
2023-02-05T02:11:05.952Z,13.53
2023-02-05T02:13:37.058Z,13.83
2023-02-05T02:16:08.929Z,11.40
2023-02-05T02:18:38.806Z,12.20
2023-02-05T02:21:31.015Z,13.57
2023-02-05T02:24:15.362Z,12.57
2023-02-05T02:27:03.145Z,11.20
2023-02-05T02:29:38.892Z,12.67
2023-02-05T02:32:17.618Z,11.70
2023-02-05T02:34:51.844Z,12.30
2023-02-05T02:37:26.877Z,11.93
2023-02-05T02:40:01.655Z,12.40
2023-02-05T02:42:36.736Z,12.70
2023-02-05T02:45:09.952Z,11.70
2023-02-05T02:47:42.951Z,12.40
2023-02-05T02:50:16.072Z,14.50
2023-02-05T02:52:47.008Z,13.17
2023-02-05T02:55:17.634Z,15.30
2023-02-05T02:57:50.971Z,14.00
2023-02-05T03:00:25.112Z,13.60
2023-02-05T03:03:01.958Z,14.77
2023-02-05T03:05:33.291Z,13.77
2023-02-05T03:08:07.724Z,14.10
2023-02-05T03:10:43.023Z,15.07
2023-02-05T03:13:14.206Z,13.13
2023-02-05T03:15:52.686Z,12.73
2023-02-05T03:18:25.149Z,11.43
2023-02-05T03:20:57.087Z,12.90
2023-02-05T03:23:27.035Z,14.60
2023-02-05T03:25:55.017Z,13.10
2023-02-05T03:28:31.250Z,13.43
2023-02-05T03:31:06.529Z,14.00
2023-02-05T03:33:48.428Z,12.80
2023-02-05T03:36:25.913Z,12.80
2023-02-05T03:39:10.273Z,12.17
2023-02-05T03:41:57.391Z,14.43
2023-02-05T03:45:02.222Z,12.50
2023-02-05T03:47:45.148Z,12.80
2023-02-05T03:50:23.225Z,13.80
2023-02-05T03:52:56.319Z,13.37
2023-02-05T03:55:30.318Z,13.40
2023-02-05T03:58:05.434Z,14.83
2023-02-05T04:00:35.121Z,14.37
2023-02-05T04:03:06.240Z,14.87
2023-02-05T04:05:36.513Z,14.47
2023-02-05T04:08:05.948Z,11.20
2023-02-05T04:10:42.499Z,15.50
2023-02-05T04:13:13.558Z,13.93
2023-02-05T04:15:42.844Z,16.80
2023-02-05T04:18:14.118Z,14.20
2023-02-05T04:20:44.095Z,12.60
2023-02-05T04:23:14.081Z,14.83
2023-02-05T04:25:43.285Z,14.50
2023-02-05T04:28:16.386Z,14.23
2023-02-05T04:30:45.057Z,15.37
2023-02-05T04:33:14.617Z,14.70
2023-02-05T04:35:43.510Z,14.97
2023-02-05T04:38:11.838Z,15.30
2023-02-05T04:40:42.514Z,13.23
2023-02-05T04:43:10.506Z,16.63
2023-02-05T04:45:39.389Z,16.03
2023-02-05T04:48:07.507Z,15.30
2023-02-05T04:50:39.238Z,17.77
2023-02-05T04:53:07.809Z,18.70
2023-02-05T04:55:37.316Z,15.67
2023-02-05T04:58:05.909Z,14.50
2023-02-05T05:00:33.916Z,15.60
2023-02-05T05:03:03.707Z,15.40
2023-02-05T05:05:31.893Z,15.87
2023-02-05T05:08:02.592Z,15.90
2023-02-05T05:10:31.021Z,16.40
2023-02-05T05:12:59.051Z,17.27
2023-02-05T05:15:27.951Z,17.97
2023-02-05T05:17:55.960Z,17.17
2023-02-05T05:20:24.355Z,18.57
2023-02-05T05:22:52.886Z,19.97
2023-02-05T05:25:24.504Z,18.77
2023-02-05T05:27:54.006Z,18.37
2023-02-05T05:30:22.312Z,17.50
2023-02-05T05:32:52.402Z,16.80
2023-02-05T05:35:20.401Z,16.00
2023-02-05T05:37:50.489Z,17.63
2023-02-05T05:40:38.067Z,17.67
2023-02-05T05:43:36.574Z,14.50
2023-02-05T05:46:06.801Z,14.77
2023-02-05T05:48:34.997Z,16.73
2023-02-05T05:51:03.972Z,18.27
2023-02-05T05:53:32.407Z,15.30
2023-02-05T05:56:03.065Z,14.23
2023-02-05T05:58:32.903Z,16.60
2023-02-05T06:01:00.897Z,14.10
2023-02-05T06:03:29.814Z,16.77
2023-02-05T06:05:57.876Z,17.17
2023-02-05T06:08:27.436Z,18.57
2023-02-05T06:10:55.541Z,16.80
2023-02-05T06:13:24.854Z,16.07
2023-02-05T06:15:56.177Z,15.50
2023-02-05T06:18:24.368Z,13.87
2023-02-05T06:20:53.253Z,16.60
2023-02-05T06:23:21.326Z,16.53
2023-02-05T06:25:49.787Z,18.40
2023-02-05T06:28:18.719Z,20.13
2023-02-05T06:30:48.372Z,20.07
2023-02-05T06:33:18.827Z,20.70
2023-02-05T06:35:47.806Z,24.33
2023-02-05T06:38:16.287Z,24.90
2023-02-05T06:40:44.290Z,23.47
2023-02-05T06:43:14.073Z,23.17
2023-02-05T06:45:42.095Z,25.77
2023-02-05T06:48:10.125Z,24.47
2023-02-05T06:50:40.089Z,24.53
2023-02-05T06:53:11.790Z,25.23
2023-02-05T06:55:40.161Z,27.67
2023-02-05T06:58:08.856Z,25.20
2023-02-05T07:00:37.671Z,24.63
2023-02-05T07:03:06.685Z,24.67
2023-02-05T07:05:35.505Z,26.60
2023-02-05T07:08:07.064Z,29.30
2023-02-05T07:10:35.097Z,24.50
2023-02-05T07:13:05.756Z,26.30
2023-02-05T07:15:38.098Z,31.83
2023-02-05T07:18:06.299Z,27.33
2023-02-05T07:20:35.173Z,30.17
2023-02-05T07:23:03.156Z,29.30
2023-02-05T07:25:36.497Z,28.50
2023-02-05T07:28:05.464Z,28.10
2023-02-05T07:30:36.962Z,34.93
2023-02-05T07:33:05.228Z,29.50
2023-02-05T07:35:38.219Z,28.77
2023-02-05T07:38:07.368Z,27.13
2023-02-05T07:40:38.702Z,25.80
2023-02-05T07:43:06.692Z,24.07
2023-02-05T07:45:35.495Z,23.20
2023-02-05T07:48:04.141Z,26.50
2023-02-05T07:50:32.993Z,24.43
2023-02-05T07:53:01.326Z,23.27
2023-02-05T07:55:29.323Z,21.77
2023-02-05T07:58:00.127Z,22.37
2023-02-05T08:00:28.182Z,19.50
2023-02-05T08:02:57.145Z,18.90
2023-02-05T08:05:25.622Z,18.90
2023-02-05T08:07:53.725Z,17.63
2023-02-05T08:10:24.128Z,17.77
2023-02-05T08:12:52.132Z,18.07
2023-02-05T08:15:23.045Z,19.30
2023-02-05T08:17:51.051Z,19.30
2023-02-05T08:20:19.654Z,19.67
2023-02-05T08:22:47.782Z,17.37
2023-02-05T08:25:17.314Z,15.47
2023-02-05T08:27:49.048Z,12.80
2023-02-05T08:30:21.687Z,13.37
2023-02-05T08:32:51.112Z,13.80
2023-02-05T08:35:19.429Z,14.20
2023-02-05T08:37:47.474Z,13.90
2023-02-05T08:40:15.513Z,14.33
2023-02-05T08:42:44.421Z,13.60
2023-02-05T08:45:12.867Z,12.23
2023-02-05T08:47:45.208Z,15.80
2023-02-05T08:50:13.786Z,14.70
2023-02-05T08:52:42.568Z,13.10
2023-02-05T08:55:10.717Z,12.07
2023-02-05T08:57:38.977Z,10.30
2023-02-05T09:00:09.936Z,10.43
2023-02-05T09:02:40.144Z,11.03
2023-02-05T09:05:09.970Z,6.17
2023-02-05T09:07:41.219Z,5.87
2023-02-05T09:10:12.287Z,5.07
2023-02-05T09:12:40.923Z,4.83
2023-02-05T09:15:10.186Z,5.00
2023-02-05T09:17:39.164Z,4.80
2023-02-05T09:20:09.445Z,3.13
2023-02-05T09:22:38.978Z,2.60
2023-02-05T09:25:08.181Z,2.70
2023-02-05T09:27:36.622Z,2.80
2023-02-05T09:30:05.199Z,2.30
2023-02-05T09:32:33.233Z,2.80
2023-02-05T09:35:02.980Z,1.77
2023-02-05T09:37:32.844Z,1.53
2023-02-05T09:42:57.850Z,1.10
2023-02-05T09:45:38.768Z,1.30
2023-02-05T09:48:24.071Z,1.40
2023-02-05T09:50:52.360Z,1.63
2023-02-05T09:53:23.803Z,1.03
2023-02-05T09:55:55.867Z,0.97
2023-02-05T09:58:28.267Z,1.20
2023-02-05T10:01:05.553Z,1.47
2023-02-05T10:03:45.192Z,1.60
2023-02-05T10:06:31.120Z,0.80
2023-02-05T10:09:09.416Z,1.00
2023-02-05T10:11:43.491Z,1.17
2023-02-05T10:14:21.300Z,0.90
2023-02-05T10:17:11.965Z,1.10
2023-02-05T10:20:01.149Z,1.00
2023-02-05T10:22:36.346Z,1.10
2023-02-05T10:25:34.116Z,1.10
2023-02-05T10:28:11.984Z,0.80
2023-02-05T10:30:48.441Z,1.30
2023-02-05T10:33:20.305Z,0.80
2023-02-05T10:35:58.252Z,0.90
2023-02-05T10:38:28.024Z,1.03
2023-02-05T10:41:05.537Z,0.70
2023-02-05T10:43:38.529Z,1.10
2023-02-05T10:46:14.259Z,0.97
2023-02-05T10:48:47.025Z,0.90
2023-02-05T10:51:19.190Z,1.23
2023-02-05T10:53:47.502Z,0.90
2023-02-05T10:56:20.085Z,0.73
2023-02-05T10:58:54.589Z,0.80
2023-02-05T11:01:25.327Z,0.70
2023-02-05T11:04:00.630Z,1.00
2023-02-05T11:06:33.793Z,1.10
2023-02-05T11:09:01.804Z,1.13
2023-02-05T11:11:33.241Z,1.30
2023-02-05T11:14:03.259Z,1.90
2023-02-05T11:16:44.655Z,2.03
2023-02-05T11:19:23.121Z,2.10
2023-02-05T11:21:54.399Z,2.70
2023-02-05T11:24:32.550Z,2.27
2023-02-05T11:27:30.402Z,2.20
2023-02-05T11:30:00.902Z,2.20
2023-02-05T11:32:37.221Z,2.37
2023-02-05T11:35:22.213Z,2.03
2023-02-05T11:37:56.398Z,1.83
2023-02-05T11:40:28.720Z,2.03
2023-02-05T11:43:08.342Z,1.90
2023-02-05T11:45:40.256Z,2.33
2023-02-05T11:48:27.431Z,1.53
2023-02-05T11:50:55.943Z,1.40
2023-02-05T11:53:24.577Z,1.30
2023-02-05T11:58:59.583Z,1.97
2023-02-05T12:01:33.648Z,1.40
2023-02-05T12:04:06.233Z,1.87
2023-02-05T12:06:41.763Z,2.57
2023-02-05T12:09:21.403Z,2.60
2023-02-05T12:12:06.310Z,3.07
2023-02-05T12:14:42.422Z,1.87
2023-02-05T12:17:37.308Z,1.80
2023-02-05T12:20:16.916Z,2.40
2023-02-05T12:23:14.987Z,3.20
2023-02-05T12:26:03.754Z,2.73
2023-02-05T19:34:59.477Z,7.20
2023-02-05T19:37:29.012Z,6.23
2023-02-05T19:39:57.505Z,5.00
2023-02-05T19:42:27.136Z,4.93
2023-02-05T19:44:55.124Z,5.90
2023-02-05T19:47:23.571Z,5.17
2023-02-05T19:49:51.593Z,4.97
2023-02-05T19:52:22.288Z,3.20
2023-02-05T19:54:51.029Z,2.80
2023-02-05T19:57:19.071Z,3.87
2023-02-05T19:59:47.543Z,4.70
2023-02-05T20:02:19.533Z,4.50
2023-02-05T20:04:48.220Z,4.77
2023-02-05T20:07:16.287Z,4.00
2023-02-05T20:09:46.088Z,4.97
2023-02-05T20:12:14.077Z,3.67
2023-02-05T20:14:42.546Z,4.73
2023-02-05T20:17:12.349Z,5.20
2023-02-05T20:19:40.387Z,3.73
2023-02-05T20:22:08.865Z,3.83
2023-02-05T20:24:37.016Z,4.10
2023-02-05T20:27:07.032Z,4.37
2023-02-05T20:29:52.450Z,3.40
2023-02-05T20:32:21.040Z,2.30
2023-02-05T20:34:50.150Z,5.03
2023-02-05T20:37:19.747Z,4.83
2023-02-05T20:39:48.546Z,6.77
2023-02-05T20:42:17.943Z,5.70
2023-02-05T20:44:46.104Z,4.60
2023-02-05T20:47:16.470Z,5.00
2023-02-05T20:49:46.550Z,4.17
2023-02-05T20:52:14.630Z,4.10
2023-02-05T20:54:43.740Z,3.97
2023-02-05T20:57:12.492Z,3.53
2023-02-05T20:59:41.944Z,6.10
2023-02-05T21:02:14.011Z,4.17
2023-02-05T21:04:42.304Z,4.20
2023-02-05T21:07:11.512Z,3.77
2023-02-05T21:09:39.515Z,5.40
2023-02-05T21:12:08.494Z,4.50
2023-02-05T21:14:37.020Z,4.27
2023-02-05T21:17:10.381Z,3.57
2023-02-05T21:19:40.364Z,4.30
2023-02-05T21:22:08.381Z,5.37
2023-02-05T21:24:37.674Z,4.40
2023-02-05T21:27:08.032Z,3.80
2023-02-05T21:29:36.556Z,4.10
2023-02-05T21:32:06.116Z,4.80
2023-02-05T21:34:34.642Z,4.10
2023-02-05T21:37:03.602Z,4.17
2023-02-05T21:39:31.799Z,4.43
2023-02-05T21:41:59.865Z,4.90
2023-02-05T21:44:27.924Z,4.50
2023-02-05T21:46:57.897Z,5.00
2023-02-05T21:49:27.277Z,3.50
2023-02-05T21:51:56.137Z,5.33
2023-02-05T21:54:25.879Z,4.60
2023-02-05T21:56:54.616Z,4.70
2023-02-05T21:59:23.291Z,5.50
2023-02-05T22:01:52.082Z,6.30
2023-02-05T22:04:20.795Z,4.90
2023-02-05T22:06:51.931Z,5.17
2023-02-05T22:09:20.957Z,4.57
2023-02-05T22:11:51.553Z,4.90
2023-02-05T22:14:20.645Z,5.00
2023-02-05T22:16:48.726Z,4.50
2023-02-05T22:19:16.747Z,5.83
2023-02-05T22:21:45.726Z,6.90
2023-02-05T22:24:18.443Z,8.60
2023-02-05T22:26:48.110Z,6.83
2023-02-05T22:29:19.697Z,6.80
2023-02-05T22:31:51.817Z,5.73
2023-02-05T22:34:19.958Z,5.30
2023-02-05T22:36:49.029Z,5.47
2023-02-05T22:39:18.993Z,7.13
2023-02-05T22:41:47.996Z,5.67
2023-02-05T22:44:15.992Z,6.83
2023-02-05T22:46:45.814Z,5.40
2023-02-05T22:49:16.343Z,5.23
2023-02-05T22:51:49.564Z,5.40
2023-02-05T22:54:18.936Z,6.13
2023-02-05T22:56:50.952Z,4.37
2023-02-05T22:59:21.522Z,5.63
2023-02-05T23:01:52.597Z,5.37
2023-02-05T23:04:20.684Z,5.40
2023-02-05T23:06:48.658Z,5.07
2023-02-05T23:09:19.713Z,4.83
2023-02-05T23:11:47.964Z,6.50
2023-02-05T23:14:20.789Z,4.83
2023-02-05T23:16:50.355Z,6.80
2023-02-05T23:19:20.969Z,4.70
2023-02-05T23:21:49.787Z,4.60
2023-02-05T23:24:21.246Z,5.07
2023-02-05T23:26:53.693Z,5.47
2023-02-05T23:29:24.094Z,4.97
2023-02-05T23:31:52.084Z,4.00
2023-02-05T23:34:21.713Z,4.20
2023-02-05T23:36:49.742Z,5.60
2023-02-05T23:39:19.571Z,4.80
2023-02-05T23:41:49.871Z,5.70
2023-02-05T23:44:20.892Z,4.50
2023-02-05T23:46:51.305Z,5.07
2023-02-05T23:49:22.359Z,4.83
2023-02-05T23:51:50.745Z,5.53
2023-02-05T23:54:21.157Z,5.10
2023-02-05T23:56:50.008Z,6.43
2023-02-05T23:59:19.259Z,5.20
